sensor_id;sensor_type;location;lat;lon;timestamp;P1;durP1;ratioP1;P2;durP2;ratioP2
74624;SDS011;63131;52.298;8.056;2023-02-15T00:00:05;20.42;;;12.38;;
74624;SDS011;63131;52.298;8.056;2023-02-15T00:05:00;19.03;;;11.40;;
74624;SDS011;63131;52.298;8.056;2023-02-15T00:07:25;17.27;;;9.90;;
74624;SDS011;63131;52.298;8.056;2023-02-15T00:09:51;18.40;;;10.85;;
74624;SDS011;63131;52.298;8.056;2023-02-15T00:12:16;18.65;;;10.18;;
74624;SDS011;63131;52.298;8.056;2023-02-15T00:14:41;17.88;;;10.15;;
74624;SDS011;63131;52.298;8.056;2023-02-15T00:17:07;21.92;;;11.07;;
74624;SDS011;63131;52.298;8.056;2023-02-15T00:19:32;20.30;;;11.02;;
74624;SDS011;63131;52.298;8.056;2023-02-15T00:21:58;18.42;;;10.20;;
74624;SDS011;63131;52.298;8.056;2023-02-15T00:24:23;18.95;;;10.38;;
74624;SDS011;63131;52.298;8.056;2023-02-15T00:26:48;19.95;;;11.98;;
74624;SDS011;63131;52.298;8.056;2023-02-15T00:29:14;18.55;;;9.60;;
74624;SDS011;63131;52.298;8.056;2023-02-15T00:31:40;17.23;;;9.32;;
74624;SDS011;63131;52.298;8.056;2023-02-15T00:34:07;19.60;;;9.82;;
74624;SDS011;63131;52.298;8.056;2023-02-15T00:36:36;19.27;;;10.20;;
74624;SDS011;63131;52.298;8.056;2023-02-15T00:39:01;17.25;;;9.60;;
74624;SDS011;63131;52.298;8.056;2023-02-15T00:41:27;15.55;;;7.93;;
74624;SDS011;63131;52.298;8.056;2023-02-15T00:43:52;15.88;;;8.45;;
74624;SDS011;63131;52.298;8.056;2023-02-15T00:46:17;16.52;;;8.57;;
74624;SDS011;63131;52.298;8.056;2023-02-15T00:48:43;16.98;;;8.85;;
74624;SDS011;63131;52.298;8.056;2023-02-15T00:51:08;16.73;;;8.90;;
74624;SDS011;63131;52.298;8.056;2023-02-15T00:53:33;18.95;;;9.93;;
74624;SDS011;63131;52.298;8.056;2023-02-15T00:55:58;20.13;;;9.75;;
74624;SDS011;63131;52.298;8.056;2023-02-15T00:58:24;15.95;;;9.77;;
74624;SDS011;63131;52.298;8.056;2023-02-15T01:00:50;16.45;;;8.70;;
74624;SDS011;63131;52.298;8.056;2023-02-15T01:03:16;20.50;;;9.60;;
74624;SDS011;63131;52.298;8.056;2023-02-15T01:05:43;18.95;;;9.02;;
74624;SDS011;63131;52.298;8.056;2023-02-15T01:08:08;16.75;;;8.38;;
74624;SDS011;63131;52.298;8.056;2023-02-15T01:10:34;16.85;;;9.02;;
74624;SDS011;63131;52.298;8.056;2023-02-15T01:13:00;18.75;;;9.75;;
74624;SDS011;63131;52.298;8.056;2023-02-15T01:15:26;17.55;;;9.07;;
74624;SDS011;63131;52.298;8.056;2023-02-15T01:17:51;18.02;;;9.30;;
74624;SDS011;63131;52.298;8.056;2023-02-15T01:20:18;18.65;;;9.98;;
74624;SDS011;63131;52.298;8.056;2023-02-15T01:22:47;17.42;;;9.18;;
74624;SDS011;63131;52.298;8.056;2023-02-15T01:25:15;18.20;;;9.35;;
74624;SDS011;63131;52.298;8.056;2023-02-15T01:27:41;16.85;;;9.40;;
74624;SDS011;63131;52.298;8.056;2023-02-15T01:30:07;17.55;;;9.35;;
74624;SDS011;63131;52.298;8.056;2023-02-15T01:34:58;19.87;;;9.27;;
74624;SDS011;63131;52.298;8.056;2023-02-15T01:37:24;18.63;;;8.88;;
74624;SDS011;63131;52.298;8.056;2023-02-15T01:39:49;20.80;;;9.73;;
74624;SDS011;63131;52.298;8.056;2023-02-15T01:42:20;17.38;;;8.77;;
74624;SDS011;63131;52.298;8.056;2023-02-15T01:50:03;17.67;;;8.93;;
74624;SDS011;63131;52.298;8.056;2023-02-15T01:52:35;16.30;;;8.90;;
74624;SDS011;63131;52.298;8.056;2023-02-15T01:55:02;18.83;;;9.95;;
74624;SDS011;63131;52.298;8.056;2023-02-15T01:57:28;17.60;;;9.57;;
74624;SDS011;63131;52.298;8.056;2023-02-15T01:59:55;18.38;;;9.82;;
74624;SDS011;63131;52.298;8.056;2023-02-15T02:02:22;18.73;;;8.82;;
74624;SDS011;63131;52.298;8.056;2023-02-15T02:04:53;16.83;;;8.95;;
74624;SDS011;63131;52.298;8.056;2023-02-15T02:07:21;18.45;;;8.68;;
74624;SDS011;63131;52.298;8.056;2023-02-15T02:09:48;17.38;;;8.38;;
74624;SDS011;63131;52.298;8.056;2023-02-15T02:12:14;23.13;;;9.27;;
74624;SDS011;63131;52.298;8.056;2023-02-15T02:14:40;16.70;;;8.73;;
74624;SDS011;63131;52.298;8.056;2023-02-15T02:23:02;21.83;;;10.10;;
74624;SDS011;63131;52.298;8.056;2023-02-15T02:36:14;19.02;;;9.27;;
74624;SDS011;63131;52.298;8.056;2023-02-15T02:41:38;19.58;;;9.13;;
74624;SDS011;63131;52.298;8.056;2023-02-15T02:46:56;19.88;;;8.27;;
74624;SDS011;63131;52.298;8.056;2023-02-15T02:49:43;18.35;;;8.63;;
74624;SDS011;63131;52.298;8.056;2023-02-15T02:55:01;18.38;;;9.40;;
74624;SDS011;63131;52.298;8.056;2023-02-15T02:57:29;19.80;;;9.50;;
74624;SDS011;63131;52.298;8.056;2023-02-15T02:59:56;19.95;;;9.55;;
74624;SDS011;63131;52.298;8.056;2023-02-15T03:02:24;19.55;;;8.45;;
74624;SDS011;63131;52.298;8.056;2023-02-15T03:04:54;18.70;;;8.38;;
74624;SDS011;63131;52.298;8.056;2023-02-15T03:07:28;15.60;;;8.07;;
74624;SDS011;63131;52.298;8.056;2023-02-15T03:09:55;18.58;;;8.50;;
74624;SDS011;63131;52.298;8.056;2023-02-15T03:14:58;17.67;;;8.13;;
74624;SDS011;63131;52.298;8.056;2023-02-15T03:17:30;16.85;;;8.25;;
74624;SDS011;63131;52.298;8.056;2023-02-15T03:19:58;18.30;;;8.48;;
74624;SDS011;63131;52.298;8.056;2023-02-15T03:22:35;15.65;;;8.27;;
74624;SDS011;63131;52.298;8.056;2023-02-15T03:27:59;18.08;;;8.02;;
74624;SDS011;63131;52.298;8.056;2023-02-15T03:30:27;16.42;;;8.27;;
74624;SDS011;63131;52.298;8.056;2023-02-15T03:32:54;17.95;;;9.98;;
74624;SDS011;63131;52.298;8.056;2023-02-15T03:35:22;16.20;;;8.27;;
74624;SDS011;63131;52.298;8.056;2023-02-15T03:37:52;18.17;;;8.52;;
74624;SDS011;63131;52.298;8.056;2023-02-15T03:40:26;16.52;;;8.45;;
74624;SDS011;63131;52.298;8.056;2023-02-15T03:43:56;15.20;;;8.35;;
74624;SDS011;63131;52.298;8.056;2023-02-15T03:48:36;18.00;;;8.05;;
74624;SDS011;63131;52.298;8.056;2023-02-15T03:51:07;15.77;;;8.23;;
74624;SDS011;63131;52.298;8.056;2023-02-15T03:53:53;17.38;;;8.00;;
74624;SDS011;63131;52.298;8.056;2023-02-15T03:56:19;17.02;;;8.55;;
74624;SDS011;63131;52.298;8.056;2023-02-15T03:58:45;17.45;;;8.60;;
74624;SDS011;63131;52.298;8.056;2023-02-15T04:01:39;19.77;;;8.40;;
74624;SDS011;63131;52.298;8.056;2023-02-15T04:04:42;16.33;;;8.23;;
74624;SDS011;63131;52.298;8.056;2023-02-15T04:07:10;17.30;;;8.18;;
74624;SDS011;63131;52.298;8.056;2023-02-15T04:09:35;18.00;;;8.85;;
74624;SDS011;63131;52.298;8.056;2023-02-15T04:12:19;17.85;;;9.02;;
74624;SDS011;63131;52.298;8.056;2023-02-15T04:14:45;18.77;;;8.52;;
74624;SDS011;63131;52.298;8.056;2023-02-15T04:17:29;17.13;;;8.38;;
74624;SDS011;63131;52.298;8.056;2023-02-15T04:19:54;16.48;;;8.20;;
74624;SDS011;63131;52.298;8.056;2023-02-15T04:22:39;17.98;;;8.50;;
74624;SDS011;63131;52.298;8.056;2023-02-15T04:25:23;15.40;;;7.93;;
74624;SDS011;63131;52.298;8.056;2023-02-15T04:27:50;18.73;;;8.57;;
74624;SDS011;63131;52.298;8.056;2023-02-15T04:30:17;16.48;;;8.38;;
74624;SDS011;63131;52.298;8.056;2023-02-15T04:32:43;15.40;;;8.05;;
74624;SDS011;63131;52.298;8.056;2023-02-15T04:35:08;16.20;;;8.10;;
74624;SDS011;63131;52.298;8.056;2023-02-15T04:37:34;15.43;;;8.15;;
74624;SDS011;63131;52.298;8.056;2023-02-15T04:39:59;15.25;;;8.07;;
74624;SDS011;63131;52.298;8.056;2023-02-15T04:42:25;17.77;;;8.57;;
74624;SDS011;63131;52.298;8.056;2023-02-15T04:44:51;15.50;;;7.88;;
74624;SDS011;63131;52.298;8.056;2023-02-15T04:47:16;15.15;;;7.78;;
74624;SDS011;63131;52.298;8.056;2023-02-15T04:49:42;17.80;;;7.97;;
74624;SDS011;63131;52.298;8.056;2023-02-15T04:52:07;18.77;;;9.07;;
74624;SDS011;63131;52.298;8.056;2023-02-15T04:54:32;14.93;;;8.77;;
74624;SDS011;63131;52.298;8.056;2023-02-15T04:56:58;16.35;;;7.88;;
74624;SDS011;63131;52.298;8.056;2023-02-15T04:59:23;16.42;;;8.80;;
74624;SDS011;63131;52.298;8.056;2023-02-15T05:01:48;17.08;;;8.50;;
74624;SDS011;63131;52.298;8.056;2023-02-15T05:04:14;16.17;;;8.80;;
74624;SDS011;63131;52.298;8.056;2023-02-15T05:06:39;17.30;;;7.70;;
74624;SDS011;63131;52.298;8.056;2023-02-15T05:09:04;17.08;;;8.27;;
74624;SDS011;63131;52.298;8.056;2023-02-15T05:11:30;18.00;;;8.00;;
74624;SDS011;63131;52.298;8.056;2023-02-15T05:13:55;17.38;;;8.75;;
74624;SDS011;63131;52.298;8.056;2023-02-15T05:16:20;18.38;;;8.63;;
74624;SDS011;63131;52.298;8.056;2023-02-15T05:18:46;15.48;;;7.93;;
74624;SDS011;63131;52.298;8.056;2023-02-15T05:21:11;18.67;;;8.45;;
74624;SDS011;63131;52.298;8.056;2023-02-15T05:23:38;16.70;;;7.78;;
74624;SDS011;63131;52.298;8.056;2023-02-15T05:26:03;16.23;;;8.70;;
74624;SDS011;63131;52.298;8.056;2023-02-15T05:28:47;18.25;;;8.48;;
74624;SDS011;63131;52.298;8.056;2023-02-15T05:31:13;15.30;;;8.20;;
74624;SDS011;63131;52.298;8.056;2023-02-15T05:33:40;19.23;;;8.52;;
74624;SDS011;63131;52.298;8.056;2023-02-15T05:36:05;16.73;;;8.90;;
74624;SDS011;63131;52.298;8.056;2023-02-15T05:38:31;15.57;;;7.13;;
74624;SDS011;63131;52.298;8.056;2023-02-15T05:40:56;15.32;;;8.57;;
74624;SDS011;63131;52.298;8.056;2023-02-15T05:43:22;18.33;;;8.68;;
74624;SDS011;63131;52.298;8.056;2023-02-15T05:45:48;17.33;;;8.55;;
74624;SDS011;63131;52.298;8.056;2023-02-15T05:48:15;16.48;;;9.38;;
74624;SDS011;63131;52.298;8.056;2023-02-15T05:50:40;15.00;;;8.00;;
74624;SDS011;63131;52.298;8.056;2023-02-15T05:53:06;15.98;;;8.60;;
74624;SDS011;63131;52.298;8.056;2023-02-15T05:55:31;16.55;;;8.50;;
74624;SDS011;63131;52.298;8.056;2023-02-15T05:57:56;16.10;;;8.30;;
74624;SDS011;63131;52.298;8.056;2023-02-15T06:00:22;16.25;;;7.85;;
74624;SDS011;63131;52.298;8.056;2023-02-15T06:02:47;17.63;;;8.25;;
74624;SDS011;63131;52.298;8.056;2023-02-15T06:05:13;19.27;;;8.85;;
74624;SDS011;63131;52.298;8.056;2023-02-15T06:07:38;17.88;;;8.13;;
74624;SDS011;63131;52.298;8.056;2023-02-15T06:10:04;18.25;;;7.90;;
74624;SDS011;63131;52.298;8.056;2023-02-15T06:12:29;15.65;;;6.97;;
74624;SDS011;63131;52.298;8.056;2023-02-15T06:14:55;15.57;;;8.23;;
74624;SDS011;63131;52.298;8.056;2023-02-15T06:17:20;16.90;;;8.10;;
74624;SDS011;63131;52.298;8.056;2023-02-15T06:19:46;17.83;;;8.50;;
74624;SDS011;63131;52.298;8.056;2023-02-15T06:22:12;15.93;;;8.32;;
74624;SDS011;63131;52.298;8.056;2023-02-15T06:27:04;18.33;;;7.90;;
74624;SDS011;63131;52.298;8.056;2023-02-15T06:29:29;18.13;;;7.57;;
74624;SDS011;63131;52.298;8.056;2023-02-15T06:31:55;15.90;;;7.40;;
74624;SDS011;63131;52.298;8.056;2023-02-15T06:34:20;15.98;;;6.85;;
74624;SDS011;63131;52.298;8.056;2023-02-15T06:36:45;17.00;;;8.43;;
74624;SDS011;63131;52.298;8.056;2023-02-15T06:39:11;15.93;;;8.20;;
74624;SDS011;63131;52.298;8.056;2023-02-15T06:41:36;18.30;;;7.20;;
74624;SDS011;63131;52.298;8.056;2023-02-15T06:44:02;20.65;;;8.20;;
74624;SDS011;63131;52.298;8.056;2023-02-15T06:46:27;18.63;;;8.02;;
74624;SDS011;63131;52.298;8.056;2023-02-15T06:48:53;18.30;;;8.73;;
74624;SDS011;63131;52.298;8.056;2023-02-15T06:51:18;20.75;;;8.73;;
74624;SDS011;63131;52.298;8.056;2023-02-15T06:53:43;22.50;;;9.13;;
74624;SDS011;63131;52.298;8.056;2023-02-15T06:56:09;18.02;;;7.85;;
74624;SDS011;63131;52.298;8.056;2023-02-15T06:58:35;16.08;;;8.50;;
74624;SDS011;63131;52.298;8.056;2023-02-15T07:01:01;18.52;;;9.02;;
74624;SDS011;63131;52.298;8.056;2023-02-15T07:03:27;20.63;;;9.57;;
74624;SDS011;63131;52.298;8.056;2023-02-15T07:05:56;17.60;;;7.65;;
74624;SDS011;63131;52.298;8.056;2023-02-15T07:08:23;16.52;;;7.93;;
74624;SDS011;63131;52.298;8.056;2023-02-15T07:10:52;15.63;;;7.97;;
74624;SDS011;63131;52.298;8.056;2023-02-15T07:13:18;16.95;;;8.85;;
74624;SDS011;63131;52.298;8.056;2023-02-15T07:15:44;15.82;;;7.38;;
74624;SDS011;63131;52.298;8.056;2023-02-15T07:20:36;17.05;;;7.85;;
74624;SDS011;63131;52.298;8.056;2023-02-15T07:23:02;17.95;;;7.63;;
74624;SDS011;63131;52.298;8.056;2023-02-15T07:25:28;17.98;;;8.65;;
74624;SDS011;63131;52.298;8.056;2023-02-15T07:27:58;19.17;;;8.02;;
74624;SDS011;63131;52.298;8.056;2023-02-15T07:30:24;17.55;;;7.75;;
74624;SDS011;63131;52.298;8.056;2023-02-15T07:32:49;20.67;;;8.82;;
74624;SDS011;63131;52.298;8.056;2023-02-15T07:35:33;18.90;;;8.98;;
74624;SDS011;63131;52.298;8.056;2023-02-15T07:37:59;22.65;;;9.13;;
74624;SDS011;63131;52.298;8.056;2023-02-15T07:40:24;17.25;;;7.63;;
74624;SDS011;63131;52.298;8.056;2023-02-15T07:42:50;20.35;;;8.68;;
74624;SDS011;63131;52.298;8.056;2023-02-15T07:45:17;19.58;;;9.38;;
74624;SDS011;63131;52.298;8.056;2023-02-15T07:47:43;18.95;;;8.88;;
74624;SDS011;63131;52.298;8.056;2023-02-15T07:50:08;19.02;;;9.98;;
74624;SDS011;63131;52.298;8.056;2023-02-15T07:52:34;20.98;;;9.35;;
74624;SDS011;63131;52.298;8.056;2023-02-15T07:54:59;19.60;;;8.80;;
74624;SDS011;63131;52.298;8.056;2023-02-15T07:57:24;17.15;;;8.73;;
74624;SDS011;63131;52.298;8.056;2023-02-15T07:59:50;20.90;;;9.32;;
74624;SDS011;63131;52.298;8.056;2023-02-15T08:02:15;20.52;;;10.77;;
74624;SDS011;63131;52.298;8.056;2023-02-15T08:04:40;18.67;;;9.07;;
74624;SDS011;63131;52.298;8.056;2023-02-15T08:07:06;17.45;;;9.05;;
74624;SDS011;63131;52.298;8.056;2023-02-15T08:09:32;21.83;;;11.25;;
74624;SDS011;63131;52.298;8.056;2023-02-15T08:11:57;25.65;;;10.30;;
74624;SDS011;63131;52.298;8.056;2023-02-15T08:14:22;21.80;;;9.40;;
74624;SDS011;63131;52.298;8.056;2023-02-15T08:16:52;19.25;;;10.18;;
74624;SDS011;63131;52.298;8.056;2023-02-15T08:19:21;20.95;;;9.82;;
74624;SDS011;63131;52.298;8.056;2023-02-15T08:21:51;17.40;;;8.95;;
74624;SDS011;63131;52.298;8.056;2023-02-15T08:24:22;21.27;;;10.52;;
74624;SDS011;63131;52.298;8.056;2023-02-15T08:26:48;21.38;;;11.88;;
74624;SDS011;63131;52.298;8.056;2023-02-15T08:29:15;22.77;;;10.82;;
74624;SDS011;63131;52.298;8.056;2023-02-15T08:31:41;19.50;;;10.18;;
74624;SDS011;63131;52.298;8.056;2023-02-15T08:34:07;22.80;;;10.30;;
74624;SDS011;63131;52.298;8.056;2023-02-15T08:36:34;21.70;;;11.85;;
74624;SDS011;63131;52.298;8.056;2023-02-15T08:39:01;19.88;;;9.55;;
74624;SDS011;63131;52.298;8.056;2023-02-15T08:41:28;20.10;;;9.38;;
74624;SDS011;63131;52.298;8.056;2023-02-15T08:43:56;20.25;;;9.43;;
74624;SDS011;63131;52.298;8.056;2023-02-15T08:46:24;18.38;;;10.10;;
74624;SDS011;63131;52.298;8.056;2023-02-15T08:48:50;20.10;;;9.65;;
74624;SDS011;63131;52.298;8.056;2023-02-15T08:51:17;19.08;;;9.02;;
74624;SDS011;63131;52.298;8.056;2023-02-15T08:53:45;18.23;;;9.20;;
74624;SDS011;63131;52.298;8.056;2023-02-15T08:56:13;16.42;;;7.88;;
74624;SDS011;63131;52.298;8.056;2023-02-15T08:58:39;17.77;;;8.38;;
74624;SDS011;63131;52.298;8.056;2023-02-15T09:01:08;17.40;;;8.80;;
74624;SDS011;63131;52.298;8.056;2023-02-15T09:03:38;15.93;;;9.02;;
74624;SDS011;63131;52.298;8.056;2023-02-15T09:06:04;21.83;;;8.93;;
74624;SDS011;63131;52.298;8.056;2023-02-15T09:08:30;17.60;;;8.60;;
74624;SDS011;63131;52.298;8.056;2023-02-15T09:11:03;18.45;;;8.57;;
74624;SDS011;63131;52.298;8.056;2023-02-15T09:13:33;18.38;;;8.48;;
74624;SDS011;63131;52.298;8.056;2023-02-15T09:16:00;17.98;;;8.25;;
74624;SDS011;63131;52.298;8.056;2023-02-15T09:18:26;19.15;;;8.82;;
74624;SDS011;63131;52.298;8.056;2023-02-15T09:20:51;17.30;;;9.00;;
74624;SDS011;63131;52.298;8.056;2023-02-15T09:23:16;15.85;;;7.28;;
74624;SDS011;63131;52.298;8.056;2023-02-15T09:25:42;19.38;;;8.35;;
74624;SDS011;63131;52.298;8.056;2023-02-15T09:28:07;16.33;;;8.00;;
74624;SDS011;63131;52.298;8.056;2023-02-15T09:30:33;21.60;;;9.90;;
74624;SDS011;63131;52.298;8.056;2023-02-15T09:32:59;18.15;;;8.38;;
74624;SDS011;63131;52.298;8.056;2023-02-15T09:35:24;16.33;;;9.13;;
74624;SDS011;63131;52.298;8.056;2023-02-15T09:37:50;20.52;;;9.95;;
74624;SDS011;63131;52.298;8.056;2023-02-15T09:40:15;19.10;;;8.27;;
74624;SDS011;63131;52.298;8.056;2023-02-15T09:53:51;19.35;;;8.25;;
74624;SDS011;63131;52.298;8.056;2023-02-15T09:56:24;20.25;;;9.10;;
74624;SDS011;63131;52.298;8.056;2023-02-15T10:04:49;18.13;;;9.30;;
74624;SDS011;63131;52.298;8.056;2023-02-15T10:07:35;17.30;;;8.70;;
74624;SDS011;63131;52.298;8.056;2023-02-15T10:10:10;17.90;;;8.95;;
74624;SDS011;63131;52.298;8.056;2023-02-15T10:18:05;18.80;;;7.88;;
74624;SDS011;63131;52.298;8.056;2023-02-15T10:26:16;16.70;;;7.68;;
74624;SDS011;63131;52.298;8.056;2023-02-15T10:45:17;17.10;;;8.25;;
74624;SDS011;63131;52.298;8.056;2023-02-15T10:47:49;16.38;;;9.27;;
74624;SDS011;63131;52.298;8.056;2023-02-15T10:50:30;18.17;;;9.27;;
74624;SDS011;63131;52.298;8.056;2023-02-15T11:01:22;19.45;;;9.88;;
74624;SDS011;63131;52.298;8.056;2023-02-15T11:04:30;17.95;;;8.95;;
74624;SDS011;63131;52.298;8.056;2023-02-15T11:06:59;18.52;;;8.57;;
74624;SDS011;63131;52.298;8.056;2023-02-15T11:12:41;19.85;;;9.52;;
74624;SDS011;63131;52.298;8.056;2023-02-15T11:15:15;18.65;;;10.20;;
74624;SDS011;63131;52.298;8.056;2023-02-15T11:18:00;19.60;;;10.77;;
74624;SDS011;63131;52.298;8.056;2023-02-15T11:20:32;18.83;;;9.65;;
74624;SDS011;63131;52.298;8.056;2023-02-15T11:23:01;20.52;;;9.85;;
74624;SDS011;63131;52.298;8.056;2023-02-15T11:25:30;19.92;;;11.35;;
74624;SDS011;63131;52.298;8.056;2023-02-15T11:27:56;20.15;;;11.35;;
74624;SDS011;63131;52.298;8.056;2023-02-15T11:30:23;23.67;;;12.48;;
74624;SDS011;63131;52.298;8.056;2023-02-15T11:32:52;21.70;;;12.40;;
74624;SDS011;63131;52.298;8.056;2023-02-15T11:35:42;26.05;;;12.25;;
74624;SDS011;63131;52.298;8.056;2023-02-15T11:38:28;23.08;;;12.20;;
74624;SDS011;63131;52.298;8.056;2023-02-15T11:40:56;24.92;;;11.93;;
74624;SDS011;63131;52.298;8.056;2023-02-15T11:46:03;23.40;;;13.18;;
74624;SDS011;63131;52.298;8.056;2023-02-15T11:48:29;23.75;;;12.63;;
74624;SDS011;63131;52.298;8.056;2023-02-15T11:50:55;22.77;;;12.57;;
74624;SDS011;63131;52.298;8.056;2023-02-15T11:53:22;22.80;;;12.20;;
74624;SDS011;63131;52.298;8.056;2023-02-15T11:55:51;22.45;;;13.15;;
74624;SDS011;63131;52.298;8.056;2023-02-15T11:58:37;21.75;;;10.82;;
74624;SDS011;63131;52.298;8.056;2023-02-15T12:01:10;25.40;;;12.77;;
74624;SDS011;63131;52.298;8.056;2023-02-15T12:03:46;25.70;;;13.15;;
74624;SDS011;63131;52.298;8.056;2023-02-15T12:06:23;22.58;;;12.73;;
74624;SDS011;63131;52.298;8.056;2023-02-15T12:08:52;24.83;;;12.82;;
74624;SDS011;63131;52.298;8.056;2023-02-15T12:11:22;27.58;;;13.93;;
74624;SDS011;63131;52.298;8.056;2023-02-15T12:13:59;21.95;;;11.95;;
74624;SDS011;63131;52.298;8.056;2023-02-15T12:16:31;27.33;;;13.63;;
74624;SDS011;63131;52.298;8.056;2023-02-15T12:18:59;24.80;;;13.60;;
74624;SDS011;63131;52.298;8.056;2023-02-15T12:21:33;24.95;;;13.35;;
74624;SDS011;63131;52.298;8.056;2023-02-15T12:24:03;26.77;;;13.45;;
74624;SDS011;63131;52.298;8.056;2023-02-15T12:26:43;26.52;;;14.20;;
74624;SDS011;63131;52.298;8.056;2023-02-15T12:29:15;28.38;;;15.65;;
74624;SDS011;63131;52.298;8.056;2023-02-15T12:31:44;26.77;;;15.88;;
74624;SDS011;63131;52.298;8.056;2023-02-15T12:34:18;26.55;;;14.32;;
74624;SDS011;63131;52.298;8.056;2023-02-15T12:36:51;29.33;;;13.57;;
74624;SDS011;63131;52.298;8.056;2023-02-15T12:39:32;25.95;;;14.50;;
74624;SDS011;63131;52.298;8.056;2023-02-15T12:41:58;28.65;;;15.50;;
74624;SDS011;63131;52.298;8.056;2023-02-15T12:44:27;27.30;;;15.43;;
74624;SDS011;63131;52.298;8.056;2023-02-15T12:49:26;29.92;;;15.57;;
74624;SDS011;63131;52.298;8.056;2023-02-15T12:51:57;28.48;;;16.45;;
74624;SDS011;63131;52.298;8.056;2023-02-15T12:56:49;27.00;;;15.30;;
74624;SDS011;63131;52.298;8.056;2023-02-15T12:59:21;32.65;;;15.75;;
74624;SDS011;63131;52.298;8.056;2023-02-15T13:01:47;27.33;;;13.20;;
74624;SDS011;63131;52.298;8.056;2023-02-15T13:04:15;25.17;;;13.70;;
74624;SDS011;63131;52.298;8.056;2023-02-15T13:06:47;30.98;;;15.52;;
74624;SDS011;63131;52.298;8.056;2023-02-15T13:09:35;25.60;;;14.38;;
74624;SDS011;63131;52.298;8.056;2023-02-15T13:14:51;27.83;;;14.63;;
74624;SDS011;63131;52.298;8.056;2023-02-15T13:17:17;28.70;;;13.80;;
74624;SDS011;63131;52.298;8.056;2023-02-15T13:20:01;28.15;;;14.43;;
74624;SDS011;63131;52.298;8.056;2023-02-15T13:22:36;28.23;;;15.27;;
74624;SDS011;63131;52.298;8.056;2023-02-15T13:25:19;25.45;;;14.15;;
74624;SDS011;63131;52.298;8.056;2023-02-15T13:27:48;26.42;;;13.88;;
74624;SDS011;63131;52.298;8.056;2023-02-15T13:32:52;26.25;;;13.25;;
74624;SDS011;63131;52.298;8.056;2023-02-15T13:35:20;27.35;;;14.13;;
74624;SDS011;63131;52.298;8.056;2023-02-15T13:40:37;27.60;;;13.23;;
74624;SDS011;63131;52.298;8.056;2023-02-15T13:43:12;25.73;;;14.20;;
74624;SDS011;63131;52.298;8.056;2023-02-15T13:46:00;27.30;;;13.02;;
74624;SDS011;63131;52.298;8.056;2023-02-15T13:52:20;26.63;;;13.23;;
74624;SDS011;63131;52.298;8.056;2023-02-15T14:02:56;28.92;;;15.20;;
74624;SDS011;63131;52.298;8.056;2023-02-15T14:19:45;24.05;;;13.82;;
74624;SDS011;63131;52.298;8.056;2023-02-15T14:22:33;29.13;;;14.18;;
74624;SDS011;63131;52.298;8.056;2023-02-15T14:30:42;30.85;;;13.65;;
74624;SDS011;63131;52.298;8.056;2023-02-15T14:36:02;27.45;;;12.93;;
74624;SDS011;63131;52.298;8.056;2023-02-15T14:41:18;25.63;;;13.38;;
74624;SDS011;63131;52.298;8.056;2023-02-15T14:50:32;28.20;;;14.40;;
74624;SDS011;63131;52.298;8.056;2023-02-15T15:01:31;25.45;;;12.32;;
74624;SDS011;63131;52.298;8.056;2023-02-15T15:03:59;22.65;;;12.70;;
74624;SDS011;63131;52.298;8.056;2023-02-15T15:06:31;28.02;;;12.77;;
74624;SDS011;63131;52.298;8.056;2023-02-15T15:09:00;24.70;;;11.55;;
74624;SDS011;63131;52.298;8.056;2023-02-15T15:11:44;24.10;;;12.80;;
74624;SDS011;63131;52.298;8.056;2023-02-15T15:14:35;26.42;;;13.10;;
74624;SDS011;63131;52.298;8.056;2023-02-15T15:16:57;25.30;;;12.82;;
74624;SDS011;63131;52.298;8.056;2023-02-15T15:22:22;24.77;;;12.70;;
74624;SDS011;63131;52.298;8.056;2023-02-15T15:24:50;23.77;;;12.27;;
74624;SDS011;63131;52.298;8.056;2023-02-15T15:27:39;24.65;;;11.88;;
74624;SDS011;63131;52.298;8.056;2023-02-15T15:32:47;26.58;;;13.02;;
74624;SDS011;63131;52.298;8.056;2023-02-15T15:35:26;23.15;;;12.50;;
74624;SDS011;63131;52.298;8.056;2023-02-15T15:46:42;24.50;;;12.70;;
74624;SDS011;63131;52.298;8.056;2023-02-15T15:49:19;25.27;;;13.50;;
74624;SDS011;63131;52.298;8.056;2023-02-15T15:51:45;24.98;;;12.90;;
74624;SDS011;63131;52.298;8.056;2023-02-15T15:54:17;23.95;;;12.90;;
74624;SDS011;63131;52.298;8.056;2023-02-15T15:56:45;26.00;;;14.10;;
74624;SDS011;63131;52.298;8.056;2023-02-15T15:59:25;27.88;;;14.35;;
74624;SDS011;63131;52.298;8.056;2023-02-15T16:01:53;27.40;;;12.05;;
74624;SDS011;63131;52.298;8.056;2023-02-15T16:04:36;24.98;;;13.85;;
74624;SDS011;63131;52.298;8.056;2023-02-15T16:07:20;25.52;;;13.93;;
74624;SDS011;63131;52.298;8.056;2023-02-15T16:09:56;21.02;;;12.80;;
74624;SDS011;63131;52.298;8.056;2023-02-15T16:12:23;26.55;;;13.50;;
74624;SDS011;63131;52.298;8.056;2023-02-15T16:14:50;25.77;;;14.45;;
74624;SDS011;63131;52.298;8.056;2023-02-15T16:17:19;27.20;;;13.73;;
74624;SDS011;63131;52.298;8.056;2023-02-15T16:19:50;23.50;;;13.20;;
74624;SDS011;63131;52.298;8.056;2023-02-15T16:22:21;27.30;;;13.73;;
74624;SDS011;63131;52.298;8.056;2023-02-15T16:27:41;26.20;;;15.25;;
74624;SDS011;63131;52.298;8.056;2023-02-15T16:30:40;31.13;;;18.35;;
74624;SDS011;63131;52.298;8.056;2023-02-15T16:33:04;26.27;;;14.82;;
74624;SDS011;63131;52.298;8.056;2023-02-15T16:35:33;30.92;;;15.07;;
74624;SDS011;63131;52.298;8.056;2023-02-15T16:38:02;29.02;;;15.77;;
74624;SDS011;63131;52.298;8.056;2023-02-15T16:40:35;31.75;;;15.98;;
74624;SDS011;63131;52.298;8.056;2023-02-15T16:43:13;29.10;;;16.45;;
74624;SDS011;63131;52.298;8.056;2023-02-15T16:45:43;33.25;;;16.92;;
74624;SDS011;63131;52.298;8.056;2023-02-15T16:48:12;37.78;;;22.27;;
74624;SDS011;63131;52.298;8.056;2023-02-15T16:50:46;29.90;;;16.08;;
74624;SDS011;63131;52.298;8.056;2023-02-15T16:53:14;26.50;;;15.45;;
74624;SDS011;63131;52.298;8.056;2023-02-15T16:55:43;25.20;;;14.70;;
74624;SDS011;63131;52.298;8.056;2023-02-15T16:58:14;28.10;;;14.82;;
74624;SDS011;63131;52.298;8.056;2023-02-15T17:00:41;29.13;;;16.02;;
74624;SDS011;63131;52.298;8.056;2023-02-15T17:03:19;24.65;;;13.57;;
74624;SDS011;63131;52.298;8.056;2023-02-15T17:05:48;29.75;;;15.30;;
74624;SDS011;63131;52.298;8.056;2023-02-15T17:08:28;27.90;;;15.43;;
74624;SDS011;63131;52.298;8.056;2023-02-15T17:11:14;25.17;;;14.43;;
74624;SDS011;63131;52.298;8.056;2023-02-15T17:16:32;32.60;;;15.93;;
74624;SDS011;63131;52.298;8.056;2023-02-15T17:19:02;22.95;;;14.05;;
74624;SDS011;63131;52.298;8.056;2023-02-15T17:21:33;30.65;;;13.90;;
74624;SDS011;63131;52.298;8.056;2023-02-15T17:24:02;29.42;;;15.88;;
74624;SDS011;63131;52.298;8.056;2023-02-15T17:28:59;31.92;;;15.70;;
74624;SDS011;63131;52.298;8.056;2023-02-15T17:31:27;29.20;;;16.75;;
74624;SDS011;63131;52.298;8.056;2023-02-15T17:33:56;31.23;;;15.95;;
74624;SDS011;63131;52.298;8.056;2023-02-15T17:36:24;29.42;;;14.90;;
74624;SDS011;63131;52.298;8.056;2023-02-15T17:41:21;28.52;;;15.63;;
74624;SDS011;63131;52.298;8.056;2023-02-15T17:43:49;25.13;;;13.90;;
74624;SDS011;63131;52.298;8.056;2023-02-15T17:46:15;30.20;;;15.85;;
74624;SDS011;63131;52.298;8.056;2023-02-15T17:48:43;27.35;;;14.57;;
74624;SDS011;63131;52.298;8.056;2023-02-15T17:51:12;29.10;;;15.38;;
74624;SDS011;63131;52.298;8.056;2023-02-15T17:53:38;26.58;;;14.50;;
74624;SDS011;63131;52.298;8.056;2023-02-15T17:56:03;31.05;;;16.58;;
74624;SDS011;63131;52.298;8.056;2023-02-15T17:58:34;31.23;;;15.75;;